VG44 weather

Dickerson Port Heliport
Gloucester, Virginia, United States

Public forecast

Using degrees Fahrenheit for public forecast. Weather courtesy of forecast.io.

Closest aviation weather report (METAR) to Dickerson Port Heliport

Closest report is Newport News Williamsburg International Airport, 7.3 nm (13.5 km) S. Retrieved 2020/01/24 03:54 UTC (31 minutes ago):

KPHF 240354Z AUTO 06003KT 8SM CLR 04/01 A3029 RMK AO2 SLP258 T00390011

Closest aviation forecast (TAF) to Dickerson Port Heliport

Closest forecast is Newport News Williamsburg International Airport, 7.3 nm (13.5 km) S. Retrieved 2020-01-24 00:27 UTC (4 hours ago):

TAF KPHF 232324Z 2400/2424 05005KT P6SM BKN150 FM241200 05006KT P6SM SCT025 BKN050 FM241700 08010KT P6SM BKN050